Time;durP1;ratioP1;P1;durP2;ratioP2;P2;SDS_P1;SDS_P2;PMS_P1;PMS_P2;Temp;Humidity;BMP_temperature;BMP_pressure;BME280_temperature;BME280_humidity;BME280_pressure;Samples;Min_cycle;Max_cycle;Signal;HPM_P1;HPM_P2
2021/10/23 00:01:25;;;;;;;15.98;9.13;;;;;;;;;;4391821;32;20499;-62
2021/10/23 00:03:52;;;;;;;13.88;9.10;;;;;;;;;;4391333;32;20088;-63
2021/10/23 00:06:18;;;;;;;12.32;9.07;;;;;;;;;;4391300;32;20076;-63
2021/10/23 00:08:45;;;;;;;15.65;9.88;;;;;;;;;;4378741;32;20557;-63
2021/10/23 00:11:12;;;;;;;14.73;8.95;;;;;;;;;;4391372;32;20072;-62
2021/10/23 00:13:38;;;;;;;13.30;9.35;;;;;;;;;;4391548;32;20074;-63
2021/10/23 00:16:05;;;;;;;12.85;9.38;;;;;;;;;;4392385;32;20069;-61
2021/10/23 00:18:31;;;;;;;11.68;8.52;;;;;;;;;;4366336;32;20163;-62
2021/10/23 00:20:58;;;;;;;11.93;9.18;;;;;;;;;;4378135;32;20070;-62
2021/10/23 00:23:25;;;;;;;15.68;8.77;;;;;;;;;;4391133;32;20081;-60
2021/10/23 00:25:51;;;;;;;15.82;9.32;;;;;;;;;;4392367;32;20085;-62
2021/10/23 00:28:17;;;;;;;11.10;8.30;;;;;;;;;;4391173;32;20086;-62
2021/10/23 00:30:44;;;;;;;13.40;9.00;;;;;;;;;;4378428;32;20073;-62
2021/10/23 00:35:50;;;;;;;13.00;8.77;;;;;;;;;;3857416;37;20058;-62
2021/10/23 00:38:17;;;;;;;13.00;9.48;;;;;;;;;;4406085;32;20066;-62
2021/10/23 00:40:44;;;;;;;12.05;8.18;;;;;;;;;;4393422;32;20087;-63
2021/10/23 00:43:10;;;;;;;13.80;9.15;;;;;;;;;;4405995;32;20073;-62
2021/10/23 00:45:37;;;;;;;15.43;9.13;;;;;;;;;;4418156;32;20085;-61
2021/10/23 00:48:04;;;;;;;12.52;8.77;;;;;;;;;;4405428;32;20185;-63
2021/10/23 00:50:30;;;;;;;13.23;8.63;;;;;;;;;;4406329;32;20077;-62
2021/10/23 00:52:57;;;;;;;13.15;9.32;;;;;;;;;;4418284;32;20096;-63
2021/10/23 00:55:23;;;;;;;13.13;9.05;;;;;;;;;;4418296;32;20082;-63
2021/10/23 00:57:50;;;;;;;13.35;9.50;;;;;;;;;;4418512;32;20097;-62
2021/10/23 01:00:17;;;;;;;13.00;8.48;;;;;;;;;;4405345;32;20072;-61
2021/10/23 01:02:43;;;;;;;11.95;8.73;;;;;;;;;;4418313;32;20496;-62
2021/10/23 01:05:10;;;;;;;15.20;8.80;;;;;;;;;;4405717;32;20087;-62
2021/10/23 01:07:36;;;;;;;15.13;9.05;;;;;;;;;;4405744;32;20095;-62
2021/10/23 01:10:08;;;;;;;12.80;8.95;;;;;;;;;;4393061;32;20606;-62
2021/10/23 01:12:35;;;;;;;12.98;8.98;;;;;;;;;;4392818;32;20080;-62
2021/10/23 01:15:16;;;;;;;10.98;8.60;;;;;;;;;;4418062;32;20093;-61
2021/10/23 01:17:42;;;;;;;12.23;8.50;;;;;;;;;;4405621;32;20065;-62
2021/10/23 01:20:09;;;;;;;13.05;9.05;;;;;;;;;;4419302;32;20503;-62
2021/10/23 01:22:36;;;;;;;13.98;9.55;;;;;;;;;;4392972;32;20088;-62
2021/10/23 01:25:03;;;;;;;14.27;9.25;;;;;;;;;;4392249;32;20467;-61
2021/10/23 01:27:29;;;;;;;12.82;9.50;;;;;;;;;;4405405;32;20160;-61
2021/10/23 01:29:56;;;;;;;14.20;9.32;;;;;;;;;;4392740;32;20081;-62
2021/10/23 01:32:22;;;;;;;12.80;8.80;;;;;;;;;;4405891;32;20178;-60
2021/10/23 01:34:49;;;;;;;15.85;9.10;;;;;;;;;;4419706;32;20076;-61
2021/10/23 01:37:15;;;;;;;15.32;9.60;;;;;;;;;;4419772;32;20588;-62
2021/10/23 01:39:42;;;;;;;13.45;9.48;;;;;;;;;;4394590;32;20081;-62
2021/10/23 01:42:08;;;;;;;12.25;8.65;;;;;;;;;;4418186;32;20484;-62
2021/10/23 01:44:36;;;;;;;16.73;9.27;;;;;;;;;;4393100;32;20575;-62
2021/10/23 01:47:03;;;;;;;12.18;8.82;;;;;;;;;;4370911;32;20170;-61
2021/10/23 01:49:29;;;;;;;12.63;9.18;;;;;;;;;;4394728;32;20065;-62
2021/10/23 01:51:56;;;;;;;13.93;8.65;;;;;;;;;;4408509;32;20507;-63
2021/10/23 01:54:23;;;;;;;12.43;8.32;;;;;;;;;;4394728;32;20097;-61
2021/10/23 01:56:49;;;;;;;13.98;8.60;;;;;;;;;;4394107;32;20078;-62
2021/10/23 01:59:16;;;;;;;15.32;8.68;;;;;;;;;;4382298;32;20179;-63
2021/10/23 02:01:43;;;;;;;12.63;8.82;;;;;;;;;;4381981;32;20082;-60
2021/10/23 02:04:09;;;;;;;13.98;9.88;;;;;;;;;;4394746;32;20092;-61
2021/10/23 02:06:36;;;;;;;14.77;9.23;;;;;;;;;;4394360;32;20180;-62
2021/10/23 02:09:03;;;;;;;12.30;8.90;;;;;;;;;;4407302;32;20079;-62
2021/10/23 02:11:30;;;;;;;15.40;9.02;;;;;;;;;;4394226;32;20158;-62
2021/10/23 02:13:56;;;;;;;12.40;8.77;;;;;;;;;;4394261;32;20069;-60
2021/10/23 02:16:23;;;;;;;12.80;8.95;;;;;;;;;;4381342;32;20073;-62
2021/10/23 02:18:50;;;;;;;12.32;9.23;;;;;;;;;;4394558;32;20085;-62
2021/10/23 02:21:16;;;;;;;13.77;8.57;;;;;;;;;;4383330;32;20162;-61
2021/10/23 02:23:43;;;;;;;13.48;9.15;;;;;;;;;;4382508;32;20081;-63
2021/10/23 02:26:10;;;;;;;12.95;8.30;;;;;;;;;;4406295;32;20076;-62
2021/10/23 02:28:36;;;;;;;12.65;9.25;;;;;;;;;;4406267;32;20156;-62
2021/10/23 02:31:03;;;;;;;11.82;8.93;;;;;;;;;;4394116;32;20157;-62
2021/10/23 02:33:30;;;;;;;14.07;9.15;;;;;;;;;;4393590;32;20069;-62
2021/10/23 02:35:56;;;;;;;11.90;8.45;;;;;;;;;;4381121;32;20459;-62
2021/10/23 02:38:23;;;;;;;13.93;9.85;;;;;;;;;;4369094;32;20103;-62
2021/10/23 02:40:51;;;;;;;13.25;9.07;;;;;;;;;;4381488;32;20065;-62
2021/10/23 02:43:17;;;;;;;12.80;8.65;;;;;;;;;;4368774;32;20074;-61
2021/10/23 02:45:44;;;;;;;14.07;9.10;;;;;;;;;;4406388;32;20093;-63
2021/10/23 02:48:10;;;;;;;15.07;9.60;;;;;;;;;;4381475;32;20576;-62
2021/10/23 02:50:37;;;;;;;14.90;9.70;;;;;;;;;;4406534;32;20154;-61
2021/10/23 02:53:03;;;;;;;11.00;8.25;;;;;;;;;;4406804;32;20492;-62
2021/10/23 02:55:30;;;;;;;14.23;9.50;;;;;;;;;;4381416;32;20084;-62
2021/10/23 02:57:57;;;;;;;15.77;10.07;;;;;;;;;;4405734;32;20077;-62
2021/10/23 03:00:23;;;;;;;13.30;9.35;;;;;;;;;;4392669;32;20088;-62
2021/10/23 03:02:50;;;;;;;14.55;9.82;;;;;;;;;;4367173;32;20158;-62
2021/10/23 03:05:18;;;;;;;13.90;9.73;;;;;;;;;;4353745;32;20112;-61
2021/10/23 03:07:44;;;;;;;13.90;8.93;;;;;;;;;;4365797;32;20081;-61
2021/10/23 03:10:11;;;;;;;13.07;9.82;;;;;;;;;;4391134;32;20167;-62
2021/10/23 03:12:38;;;;;;;14.07;9.43;;;;;;;;;;4366058;32;20074;-63
2021/10/23 03:15:05;;;;;;;13.85;9.40;;;;;;;;;;4378964;32;20093;-62
2021/10/23 03:17:31;;;;;;;15.55;9.02;;;;;;;;;;4390563;32;20158;-62
2021/10/23 03:19:58;;;;;;;13.10;9.00;;;;;;;;;;4352987;32;20081;-63
2021/10/23 03:22:25;;;;;;;14.98;9.20;;;;;;;;;;4378273;32;20093;-62
2021/10/23 03:24:52;;;;;;;13.68;9.25;;;;;;;;;;4353427;32;20077;-62
2021/10/23 03:27:22;;;;;;;16.33;8.93;;;;;;;;;;4365482;32;20080;-60
2021/10/23 03:29:52;;;;;;;13.80;9.40;;;;;;;;;;4390762;32;20078;-62
2021/10/23 03:32:19;;;;;;;14.00;9.68;;;;;;;;;;4365379;32;20086;-62
2021/10/23 03:34:45;;;;;;;13.68;8.73;;;;;;;;;;4365397;32;20153;-62
2021/10/23 03:37:12;;;;;;;14.15;9.35;;;;;;;;;;4353437;32;20100;-62
2021/10/23 03:39:40;;;;;;;11.68;8.63;;;;;;;;;;4353825;32;20161;-62
2021/10/23 03:42:06;;;;;;;13.35;9.48;;;;;;;;;;4366160;32;20165;-61
2021/10/23 03:44:33;;;;;;;13.10;8.85;;;;;;;;;;4378696;32;20100;-62
2021/10/23 03:47:00;;;;;;;14.32;9.45;;;;;;;;;;4365924;32;20500;-62
2021/10/23 03:49:26;;;;;;;12.55;9.10;;;;;;;;;;4390678;32;20105;-61
2021/10/23 03:51:53;;;;;;;13.02;8.90;;;;;;;;;;4390764;32;20074;-62
2021/10/23 03:54:19;;;;;;;12.70;8.85;;;;;;;;;;4377533;32;20066;-61
2021/10/23 03:56:46;;;;;;;14.55;8.95;;;;;;;;;;4390356;32;20073;-62
2021/10/23 03:59:13;;;;;;;15.18;8.70;;;;;;;;;;4378179;32;20113;-61
2021/10/23 04:01:39;;;;;;;12.77;8.50;;;;;;;;;;4365649;32;20077;-62
2021/10/23 04:04:08;;;;;;;13.13;8.05;;;;;;;;;;4365299;32;20147;-62
2021/10/23 04:06:34;;;;;;;13.95;8.85;;;;;;;;;;4391622;32;20153;-63
2021/10/23 04:09:01;;;;;;;12.70;9.30;;;;;;;;;;4389982;32;20179;-63
2021/10/23 04:11:27;;;;;;;13.93;8.38;;;;;;;;;;4352429;32;20521;-61
2021/10/23 04:13:54;;;;;;;12.45;7.95;;;;;;;;;;4364727;32;20492;-62
2021/10/23 04:16:21;;;;;;;14.45;8.57;;;;;;;;;;4390717;32;20069;-62
2021/10/23 04:18:47;;;;;;;13.20;8.02;;;;;;;;;;4391157;32;20093;-61
2021/10/23 04:21:15;;;;;;;12.93;8.30;;;;;;;;;;4365366;32;20085;-62
2021/10/23 04:23:41;;;;;;;14.85;9.05;;;;;;;;;;4390540;32;20093;-62
2021/10/23 04:26:08;;;;;;;15.40;10.07;;;;;;;;;;4352796;32;20508;-63
2021/10/23 04:28:35;;;;;;;14.48;9.13;;;;;;;;;;4389882;32;20173;-61
2021/10/23 04:31:01;;;;;;;13.77;8.57;;;;;;;;;;4365157;32;20161;-62
2021/10/23 04:33:28;;;;;;;12.68;8.20;;;;;;;;;;4364680;32;20085;-62
2021/10/23 04:35:55;;;;;;;12.37;8.30;;;;;;;;;;4364977;32;20084;-61
2021/10/23 04:38:21;;;;;;;11.80;7.78;;;;;;;;;;4390017;32;20096;-62
2021/10/23 04:40:48;;;;;;;15.57;8.88;;;;;;;;;;4364713;32;20078;-62
2021/10/23 04:43:15;;;;;;;12.70;9.02;;;;;;;;;;4365633;32;20077;-61
2021/10/23 04:45:41;;;;;;;12.35;8.52;;;;;;;;;;4391217;32;20109;-61
2021/10/23 04:48:08;;;;;;;16.08;9.35;;;;;;;;;;4378519;32;20091;-62
2021/10/23 04:50:34;;;;;;;12.13;8.13;;;;;;;;;;4377683;32;20105;-62
2021/10/23 04:53:01;;;;;;;14.10;9.15;;;;;;;;;;4403581;32;20085;-66
2021/10/23 04:55:28;;;;;;;13.88;9.98;;;;;;;;;;4392346;32;20163;-62
2021/10/23 04:57:57;;;;;;;13.30;8.52;;;;;;;;;;4394499;32;20074;-63
2021/10/23 05:00:24;;;;;;;15.18;9.07;;;;;;;;;;4369142;32;20077;-62
2021/10/23 05:02:51;;;;;;;13.30;9.02;;;;;;;;;;4365496;32;20081;-62
2021/10/23 05:05:18;;;;;;;13.02;9.35;;;;;;;;;;4364502;32;20074;-62
2021/10/23 05:07:45;;;;;;;13.57;9.50;;;;;;;;;;4365084;32;20078;-62
2021/10/23 05:10:13;;;;;;;11.70;8.63;;;;;;;;;;4352902;32;20181;-60
2021/10/23 05:12:40;;;;;;;12.57;8.73;;;;;;;;;;4389816;32;20154;-61
2021/10/23 05:15:07;;;;;;;13.88;9.50;;;;;;;;;;4377558;32;20084;-62
2021/10/23 05:17:34;;;;;;;14.55;9.43;;;;;;;;;;4364405;32;20491;-61
2021/10/23 05:20:00;;;;;;;12.48;8.80;;;;;;;;;;4364365;32;20151;-61
2021/10/23 05:22:27;;;;;;;13.82;9.27;;;;;;;;;;4380129;32;20081;-60
2021/10/23 05:24:53;;;;;;;12.80;8.63;;;;;;;;;;4394143;32;20175;-61
2021/10/23 05:27:20;;;;;;;13.60;9.05;;;;;;;;;;4392943;32;20173;-61
2021/10/23 05:29:46;;;;;;;14.82;8.75;;;;;;;;;;4379793;32;20091;-61
2021/10/23 05:32:13;;;;;;;15.65;8.95;;;;;;;;;;4355988;32;20440;-63
2021/10/23 05:34:40;;;;;;;11.30;8.40;;;;;;;;;;4355486;32;20564;-62
2021/10/23 05:37:06;;;;;;;12.75;8.43;;;;;;;;;;4392720;32;20070;-61
2021/10/23 05:39:33;;;;;;;12.50;8.10;;;;;;;;;;4379860;32;20162;-63
2021/10/23 05:41:59;;;;;;;13.88;8.07;;;;;;;;;;4379754;32;20173;-60
2021/10/23 05:44:26;;;;;;;12.55;9.30;;;;;;;;;;4379691;32;20058;-62
2021/10/23 05:46:52;;;;;;;12.30;8.75;;;;;;;;;;4380411;32;20444;-60
2021/10/23 05:49:19;;;;;;;15.23;8.50;;;;;;;;;;4392960;32;20242;-62
2021/10/23 05:51:46;;;;;;;13.20;8.13;;;;;;;;;;4367545;32;20469;-62
2021/10/23 05:54:13;;;;;;;12.27;8.52;;;;;;;;;;4379359;32;20185;-62
2021/10/23 05:56:40;;;;;;;12.30;8.15;;;;;;;;;;4367185;32;20073;-61
2021/10/23 05:59:10;;;;;;;12.15;8.70;;;;;;;;;;4379789;32;20153;-62
2021/10/23 06:01:43;;;;;;;12.70;8.57;;;;;;;;;;4392575;32;20085;-62
2021/10/23 06:04:10;;;;;;;12.32;8.30;;;;;;;;;;4379928;32;20057;-62
2021/10/23 06:06:37;;;;;;;11.90;8.65;;;;;;;;;;4367628;32;20070;-61
2021/10/23 06:09:03;;;;;;;11.05;8.07;;;;;;;;;;4379478;32;20097;-62
2021/10/23 06:11:30;;;;;;;14.25;8.13;;;;;;;;;;4367912;32;20186;-60
2021/10/23 06:13:58;;;;;;;16.08;8.77;;;;;;;;;;4367635;32;20070;-62
2021/10/23 06:16:25;;;;;;;11.90;8.20;;;;;;;;;;4380339;32;20190;-62
2021/10/23 06:18:52;;;;;;;11.70;8.32;;;;;;;;;;4366820;32;20089;-61
2021/10/23 06:21:19;;;;;;;15.52;8.20;;;;;;;;;;4368263;32;20193;-61
2021/10/23 06:23:46;;;;;;;12.13;8.25;;;;;;;;;;4380846;32;20070;-62
2021/10/23 06:26:13;;;;;;;14.32;8.20;;;;;;;;;;4379379;32;20082;-61
2021/10/23 06:28:39;;;;;;;13.10;8.20;;;;;;;;;;4366556;32;20154;-61
2021/10/23 06:31:07;;;;;;;11.18;7.72;;;;;;;;;;4366431;32;20054;-64
2021/10/23 06:33:34;;;;;;;11.30;7.97;;;;;;;;;;4365499;32;20089;-63
2021/10/23 06:36:01;;;;;;;12.55;7.53;;;;;;;;;;4366727;32;20082;-63
2021/10/23 06:38:27;;;;;;;12.05;7.22;;;;;;;;;;4378988;32;20081;-61
2021/10/23 06:40:55;;;;;;;12.85;7.85;;;;;;;;;;4379451;32;20101;-61
2021/10/23 06:43:24;;;;;;;13.82;8.02;;;;;;;;;;4391901;32;20082;-63
2021/10/23 06:45:51;;;;;;;12.30;8.18;;;;;;;;;;4380156;32;20065;-62
2021/10/23 06:48:18;;;;;;;13.35;7.85;;;;;;;;;;4370486;32;20084;-63
2021/10/23 06:50:44;;;;;;;11.70;7.78;;;;;;;;;;4379749;32;20520;-63
2021/10/23 06:53:11;;;;;;;10.10;7.40;;;;;;;;;;4367388;32;20150;-62
2021/10/23 06:55:37;;;;;;;11.73;6.87;;;;;;;;;;4378723;32;20079;-63
2021/10/23 06:58:04;;;;;;;9.93;7.07;;;;;;;;;;4392437;32;20078;-63
2021/10/23 07:00:30;;;;;;;12.48;7.22;;;;;;;;;;4378790;32;20085;-63
2021/10/23 07:02:57;;;;;;;10.50;7.80;;;;;;;;;;4391242;32;20069;-61
2021/10/23 07:05:26;;;;;;;10.40;6.60;;;;;;;;;;4378989;32;20169;-62
2021/10/23 07:07:53;;;;;;;12.77;7.32;;;;;;;;;;4366598;32;20086;-62
2021/10/23 07:10:19;;;;;;;11.50;7.22;;;;;;;;;;4390832;32;20084;-61
2021/10/23 07:12:46;;;;;;;10.43;7.47;;;;;;;;;;4391303;32;20077;-62
2021/10/23 07:15:12;;;;;;;10.65;6.90;;;;;;;;;;4390795;32;20097;-60
2021/10/23 07:17:39;;;;;;;12.85;7.72;;;;;;;;;;4391375;32;20088;-62
2021/10/23 07:20:06;;;;;;;10.13;7.70;;;;;;;;;;4378222;32;20093;-60
2021/10/23 07:22:32;;;;;;;10.82;7.68;;;;;;;;;;4392354;32;20080;-59
2021/10/23 07:24:59;;;;;;;11.30;6.80;;;;;;;;;;4378189;32;20086;-61
2021/10/23 07:27:26;;;;;;;9.25;6.35;;;;;;;;;;4378172;32;20170;-63
2021/10/23 07:29:53;;;;;;;12.57;7.05;;;;;;;;;;4353925;32;20164;-61
2021/10/23 07:32:19;;;;;;;10.50;7.70;;;;;;;;;;4378475;32;20084;-61
2021/10/23 07:34:46;;;;;;;10.63;7.35;;;;;;;;;;4390092;32;20089;-61
2021/10/23 07:37:13;;;;;;;11.05;7.30;;;;;;;;;;4365222;32;20086;-62
2021/10/23 07:39:39;;;;;;;11.15;7.35;;;;;;;;;;4378260;32;20072;-61
2021/10/23 07:42:06;;;;;;;11.07;7.60;;;;;;;;;;4378002;32;20070;-61
2021/10/23 07:44:32;;;;;;;10.82;6.75;;;;;;;;;;4377394;32;20101;-61
2021/10/23 07:46:59;;;;;;;11.23;6.40;;;;;;;;;;4364709;32;20169;-60
2021/10/23 07:49:26;;;;;;;11.07;6.65;;;;;;;;;;4370879;32;20493;-62
2021/10/23 07:51:52;;;;;;;12.50;6.60;;;;;;;;;;4363257;32;20070;-62
2021/10/23 07:56:59;;;;;;;11.18;6.60;;;;;;;;;;3857337;37;20061;-62
2021/10/23 07:59:26;;;;;;;10.55;6.78;;;;;;;;;;4380589;32;20114;-63
2021/10/23 08:01:59;;;;;;;11.05;6.97;;;;;;;;;;4419133;32;20076;-63
2021/10/23 08:04:27;;;;;;;10.63;6.80;;;;;;;;;;4405975;32;20466;-63
2021/10/23 08:06:53;;;;;;;11.32;6.62;;;;;;;;;;4419228;32;20069;-64
2021/10/23 08:09:20;;;;;;;10.52;7.10;;;;;;;;;;4406486;32;20438;-64
2021/10/23 08:11:46;;;;;;;8.80;6.15;;;;;;;;;;4393161;32;20073;-62
2021/10/23 08:14:13;;;;;;;9.40;5.87;;;;;;;;;;4403214;32;20162;-63
2021/10/23 08:16:40;;;;;;;8.75;5.60;;;;;;;;;;4403190;32;20076;-61
2021/10/23 08:19:07;;;;;;;8.25;6.18;;;;;;;;;;4390671;32;20079;-62
2021/10/23 08:21:35;;;;;;;10.50;6.35;;;;;;;;;;4382070;32;20073;-63
2021/10/23 08:24:01;;;;;;;9.13;5.72;;;;;;;;;;4398365;32;20086;-62
2021/10/23 08:26:28;;;;;;;10.05;6.82;;;;;;;;;;4409830;32;20078;-63
2021/10/23 08:28:55;;;;;;;10.45;7.28;;;;;;;;;;4407264;32;20066;-63
2021/10/23 08:31:22;;;;;;;10.57;5.75;;;;;;;;;;4391522;32;20077;-63
2021/10/23 08:33:49;;;;;;;8.88;6.20;;;;;;;;;;4390431;32;20112;-62
2021/10/23 08:36:15;;;;;;;8.63;6.07;;;;;;;;;;4403087;32;20088;-63
2021/10/23 08:38:42;;;;;;;9.95;6.70;;;;;;;;;;4390313;32;20083;-64
2021/10/23 08:41:09;;;;;;;8.52;5.90;;;;;;;;;;4390641;32;20181;-64
2021/10/23 08:43:36;;;;;;;7.95;5.53;;;;;;;;;;4390753;32;20066;-63
2021/10/23 08:46:03;;;;;;;8.13;5.62;;;;;;;;;;4390900;32;20097;-63
2021/10/23 08:48:30;;;;;;;6.90;4.87;;;;;;;;;;4390896;32;20519;-63
2021/10/23 08:50:58;;;;;;;7.95;4.93;;;;;;;;;;4390585;32;20084;-64
2021/10/23 08:53:25;;;;;;;6.65;4.80;;;;;;;;;;4377792;32;20149;-63
2021/10/23 08:55:52;;;;;;;6.53;4.87;;;;;;;;;;4364889;32;20066;-64
2021/10/23 08:58:18;;;;;;;7.35;4.90;;;;;;;;;;4389792;32;20089;-63
2021/10/23 09:00:46;;;;;;;6.47;4.30;;;;;;;;;;4390177;32;20152;-63
2021/10/23 09:03:12;;;;;;;8.00;4.90;;;;;;;;;;4390258;32;20085;-64
2021/10/23 09:05:39;;;;;;;8.38;4.70;;;;;;;;;;4402234;32;20448;-64
2021/10/23 09:08:15;;;;;;;7.45;4.03;;;;;;;;;;4381098;32;20173;-64
2021/10/23 09:10:46;;;;;;;;;;;;;;;;;;4379929;32;20162;-64
2021/10/23 09:13:12;;;;;;;7.55;4.80;;;;;;;;;;4392466;32;19977;-63
2021/10/23 09:15:40;;;;;;;8.57;4.28;;;;;;;;;;4367729;32;20184;-64
2021/10/23 09:18:07;;;;;;;6.22;4.30;;;;;;;;;;4392933;32;20441;-63
2021/10/23 09:20:41;;;;;;;6.70;3.92;;;;;;;;;;4392413;32;20073;-63
2021/10/23 09:23:21;;;;;;;10.30;5.03;;;;;;;;;;4383124;32;20072;-64
2021/10/23 09:25:51;;;;;;;6.15;4.10;;;;;;;;;;4371335;32;20074;-62
2021/10/23 09:28:29;;;;;;;8.77;4.65;;;;;;;;;;4380060;32;20085;-63
2021/10/23 09:30:55;;;;;;;7.85;4.78;;;;;;;;;;4379673;32;20074;-63
2021/10/23 09:33:25;;;;;;;7.87;4.60;;;;;;;;;;4392141;32;20097;-64
2021/10/23 09:35:59;;;;;;;7.62;4.97;;;;;;;;;;4393236;32;20085;-62
2021/10/23 09:38:26;;;;;;;8.10;4.53;;;;;;;;;;4380011;32;20098;-64
2021/10/23 09:40:57;;;;;;;8.60;4.25;;;;;;;;;;4354443;32;20081;-63
2021/10/23 09:43:29;;;;;;;6.00;4.18;;;;;;;;;;4379037;32;20080;-64
2021/10/23 09:46:04;;;;;;;5.87;3.85;;;;;;;;;;4379152;32;20070;-64
2021/10/23 09:48:35;;;;;;;6.43;3.80;;;;;;;;;;4391562;32;20445;-63
2021/10/23 09:51:22;;;;;;;5.00;3.62;;;;;;;;;;4379421;32;20082;-63
2021/10/23 09:53:59;;;;;;;7.47;4.40;;;;;;;;;;4379010;32;20151;-63
2021/10/23 09:56:31;;;;;;;6.00;3.75;;;;;;;;;;4378923;32;20492;-64
2021/10/23 09:59:07;;;;;;;5.72;4.00;;;;;;;;;;4380482;32;20491;-64
2021/10/23 10:01:39;;;;;;;7.43;3.85;;;;;;;;;;4380549;32;20085;-64
2021/10/23 10:04:07;;;;;;;7.03;4.00;;;;;;;;;;4379628;32;20081;-61
2021/10/23 10:06:36;;;;;;;9.02;3.80;;;;;;;;;;4391238;32;20093;-61
2021/10/23 10:09:03;;;;;;;7.00;4.28;;;;;;;;;;4379444;32;20070;-63
2021/10/23 10:11:31;;;;;;;7.25;4.07;;;;;;;;;;4378947;32;20077;-63
2021/10/23 10:13:57;;;;;;;6.75;4.03;;;;;;;;;;4379061;32;20093;-63
2021/10/23 10:16:26;;;;;;;6.07;3.83;;;;;;;;;;4366576;32;20117;-63
2021/10/23 10:18:54;;;;;;;6.28;3.87;;;;;;;;;;4390544;32;20082;-64
2021/10/23 10:21:20;;;;;;;6.50;4.20;;;;;;;;;;4391239;32;20085;-64
2021/10/23 10:23:47;;;;;;;5.47;3.90;;;;;;;;;;4378842;32;20085;-64
2021/10/23 10:26:34;;;;;;;6.37;3.90;;;;;;;;;;4379157;32;20508;-64
2021/10/23 10:29:07;;;;;;;8.52;3.97;;;;;;;;;;4391085;32;20077;-64
2021/10/23 10:32:07;;;;;;;5.12;3.75;;;;;;;;;;4378196;32;20525;-63
2021/10/23 10:42:58;;;;;;;5.70;3.80;;;;;;;;;;4391007;32;20082;-62
2021/10/23 10:45:26;;;;;;;6.25;4.10;;;;;;;;;;4390708;32;20085;-63
2021/10/23 10:48:25;;;;;;;7.15;3.80;;;;;;;;;;4378463;32;20153;-63
2021/10/23 10:50:51;;;;;;;7.05;4.00;;;;;;;;;;4377792;32;20165;-63
2021/10/23 10:53:32;;;;;;;7.15;3.97;;;;;;;;;;4390741;32;20480;-62
2021/10/23 10:56:11;;;;;;;7.60;4.57;;;;;;;;;;4378073;32;20089;-62
2021/10/23 10:58:49;;;;;;;5.50;4.12;;;;;;;;;;4390960;32;20185;-62
2021/10/23 11:01:27;;;;;;;5.75;3.95;;;;;;;;;;4379022;32;20081;-60
2021/10/23 11:04:05;;;;;;;6.25;3.55;;;;;;;;;;4377896;32;20069;-63
2021/10/23 11:06:35;;;;;;;6.07;3.90;;;;;;;;;;4378162;32;20090;-63
2021/10/23 11:09:16;;;;;;;5.65;3.85;;;;;;;;;;4390542;32;20093;-63
2021/10/23 11:11:46;;;;;;;4.95;3.67;;;;;;;;;;4390883;32;20243;-63
2021/10/23 11:14:28;;;;;;;5.68;3.72;;;;;;;;;;4391035;32;20508;-63
2021/10/23 11:17:00;;;;;;;8.10;3.87;;;;;;;;;;4391851;32;20576;-62
2021/10/23 11:19:47;;;;;;;8.15;3.78;;;;;;;;;;4390765;32;20177;-63
2021/10/23 11:22:25;;;;;;;5.45;3.58;;;;;;;;;;4390393;32;20084;-62
2021/10/23 11:24:55;;;;;;;7.43;3.72;;;;;;;;;;4390353;32;20073;-62
2021/10/23 11:27:48;;;;;;;6.62;3.87;;;;;;;;;;4378499;32;20169;-62
2021/10/23 11:30:29;;;;;;;6.65;4.45;;;;;;;;;;4379244;32;20089;-63
2021/10/23 11:33:03;;;;;;;5.97;3.90;;;;;;;;;;4390689;32;20069;-62
2021/10/23 11:35:33;;;;;;;9.18;5.10;;;;;;;;;;4390003;32;20457;-63
2021/10/23 11:38:01;;;;;;;9.45;5.10;;;;;;;;;;4389982;32;20069;-63
2021/10/23 11:40:28;;;;;;;6.62;4.70;;;;;;;;;;4377927;32;20508;-63
2021/10/23 11:42:54;;;;;;;9.68;5.65;;;;;;;;;;4390202;32;20073;-63
2021/10/23 11:45:26;;;;;;;12.13;5.45;;;;;;;;;;4377881;32;20073;-61
2021/10/23 11:47:57;;;;;;;9.50;5.60;;;;;;;;;;4393719;32;20156;-62
2021/10/23 11:50:27;;;;;;;7.85;4.82;;;;;;;;;;4395427;32;20095;-62
2021/10/23 11:53:10;;;;;;;8.85;5.15;;;;;;;;;;4379399;32;20078;-63
2021/10/23 11:55:38;;;;;;;9.82;5.35;;;;;;;;;;4379271;32;20074;-63
2021/10/23 11:58:17;;;;;;;7.80;5.05;;;;;;;;;;4391399;32;20089;-62
2021/10/23 12:00:45;;;;;;;6.78;5.05;;;;;;;;;;4386821;32;20092;-63
2021/10/23 12:03:15;;;;;;;8.05;5.80;;;;;;;;;;4398936;32;20201;-64
2021/10/23 12:05:47;;;;;;;8.73;6.03;;;;;;;;;;4373370;32;20086;-62
2021/10/23 12:08:18;;;;;;;11.45;6.55;;;;;;;;;;4377690;32;20165;-63
2021/10/23 12:11:07;;;;;;;10.98;6.15;;;;;;;;;;4377997;32;20496;-62
2021/10/23 12:13:43;;;;;;;12.37;6.32;;;;;;;;;;4377616;32;20177;-63
2021/10/23 12:16:10;;;;;;;11.68;5.70;;;;;;;;;;4390434;32;20065;-62
2021/10/23 12:18:38;;;;;;;8.80;5.90;;;;;;;;;;4364529;32;20542;-64
2021/10/23 12:21:15;;;;;;;9.38;5.50;;;;;;;;;;4365172;32;20088;-63
2021/10/23 12:23:52;;;;;;;12.25;6.65;;;;;;;;;;4377940;32;20098;-62
2021/10/23 12:26:28;;;;;;;10.85;6.07;;;;;;;;;;4378212;32;20112;-64
2021/10/23 12:29:05;;;;;;;;;;;;;;;;;;4378258;32;20070;-62
2021/10/23 12:31:53;;;;;;;8.00;5.57;;;;;;;;;;4389620;32;19997;-64
2021/10/23 12:34:20;;;;;;;8.73;5.65;;;;;;;;;;4391304;32;20163;-63
2021/10/23 12:37:06;;;;;;;8.70;4.82;;;;;;;;;;4389479;32;20165;-62
2021/10/23 12:39:32;;;;;;;6.90;4.40;;;;;;;;;;4377445;32;20077;-61
2021/10/23 12:41:59;;;;;;;7.43;3.60;;;;;;;;;;4365913;32;20159;-62
2021/10/23 12:44:26;;;;;;;6.00;2.97;;;;;;;;;;4379968;32;20066;-61
2021/10/23 12:46:53;;;;;;;6.62;3.55;;;;;;;;;;4380232;32;20066;-61
2021/10/23 12:49:23;;;;;;;6.40;3.33;;;;;;;;;;4379803;32;20080;-62
2021/10/23 12:51:50;;;;;;;6.82;3.22;;;;;;;;;;4368090;32;20082;-63
2021/10/23 12:54:17;;;;;;;7.50;3.42;;;;;;;;;;4392595;32;20448;-62
2021/10/23 12:56:44;;;;;;;5.62;2.90;;;;;;;;;;4379911;32;20160;-63
2021/10/23 12:59:14;;;;;;;5.10;2.90;;;;;;;;;;4392682;32;20082;-62
2021/10/23 13:01:40;;;;;;;4.95;3.08;;;;;;;;;;4380768;32;20467;-63
2021/10/23 13:04:07;;;;;;;5.07;2.70;;;;;;;;;;4380726;32;20084;-62
2021/10/23 13:06:34;;;;;;;5.87;3.28;;;;;;;;;;4393325;32;20451;-61
2021/10/23 13:09:01;;;;;;;6.87;3.62;;;;;;;;;;4367696;32;20179;-61
2021/10/23 13:11:27;;;;;;;6.22;3.53;;;;;;;;;;4379750;32;20102;-61
2021/10/23 13:13:54;;;;;;;7.47;4.25;;;;;;;;;;4379178;32;20082;-63
2021/10/23 13:16:21;;;;;;;7.45;4.22;;;;;;;;;;4354433;32;20070;-63
2021/10/23 13:18:47;;;;;;;7.25;4.30;;;;;;;;;;4391782;32;20065;-61
2021/10/23 13:21:14;;;;;;;5.68;4.03;;;;;;;;;;4379677;32;20581;-62
2021/10/23 13:23:41;;;;;;;8.07;4.82;;;;;;;;;;4379082;32;20100;-63
2021/10/23 13:26:07;;;;;;;7.10;5.05;;;;;;;;;;4393357;32;20078;-63
2021/10/23 13:28:34;;;;;;;8.70;5.20;;;;;;;;;;4391808;32;20169;-63
2021/10/23 13:31:00;;;;;;;7.45;4.82;;;;;;;;;;4392582;32;20084;-62
2021/10/23 13:33:29;;;;;;;10.32;5.20;;;;;;;;;;4391750;32;20073;-62
2021/10/23 13:35:56;;;;;;;8.07;5.18;;;;;;;;;;4367911;32;20082;-61
2021/10/23 13:38:23;;;;;;;7.82;4.80;;;;;;;;;;4380222;32;20064;-61
2021/10/23 13:40:50;;;;;;;9.40;5.10;;;;;;;;;;4366815;32;20166;-64
2021/10/23 13:43:16;;;;;;;8.88;5.30;;;;;;;;;;4379521;32;20084;-63
2021/10/23 13:45:43;;;;;;;7.40;5.00;;;;;;;;;;4378844;32;20535;-63
2021/10/23 13:48:09;;;;;;;8.55;5.20;;;;;;;;;;4366951;32;20078;-63
2021/10/23 13:50:36;;;;;;;9.85;5.28;;;;;;;;;;4391920;32;20440;-62
2021/10/23 13:53:04;;;;;;;10.32;5.25;;;;;;;;;;4378732;32;20609;-63
2021/10/23 13:55:30;;;;;;;10.48;5.30;;;;;;;;;;4378641;32;20152;-63
2021/10/23 13:57:57;;;;;;;9.88;5.20;;;;;;;;;;4379283;32;20496;-62
2021/10/23 14:00:24;;;;;;;9.77;5.07;;;;;;;;;;4379036;32;20079;-62
2021/10/23 14:02:51;;;;;;;7.82;4.68;;;;;;;;;;4378891;32;20074;-62
2021/10/23 14:05:18;;;;;;;10.75;4.55;;;;;;;;;;4366219;32;20066;-63
2021/10/23 14:07:45;;;;;;;8.65;5.03;;;;;;;;;;4391202;32;20076;-63
2021/10/23 14:10:12;;;;;;;7.95;4.87;;;;;;;;;;4378678;32;20163;-63
2021/10/23 14:12:38;;;;;;;8.02;4.28;;;;;;;;;;4353851;32;20451;-63
2021/10/23 14:15:07;;;;;;;8.43;4.65;;;;;;;;;;4391580;32;20235;-63
2021/10/23 14:17:33;;;;;;;6.20;4.05;;;;;;;;;;4391831;32;20097;-61
2021/10/23 14:20:00;;;;;;;6.12;3.97;;;;;;;;;;4379034;32;20085;-63
2021/10/23 14:22:27;;;;;;;6.93;4.00;;;;;;;;;;4378658;32;20097;-63
2021/10/23 14:24:53;;;;;;;5.45;3.53;;;;;;;;;;4366394;32;20447;-63
2021/10/23 14:30:12;;;;;;;5.45;3.25;;;;;;;;;;4368027;32;20137;-63
2021/10/23 14:32:39;;;;;;;4.97;3.15;;;;;;;;;;4390922;32;20492;-62
2021/10/23 14:35:07;;;;;;;4.53;3.12;;;;;;;;;;4378949;32;20511;-62
2021/10/23 14:37:34;;;;;;;5.65;2.90;;;;;;;;;;4379224;32;20080;-62
2021/10/23 14:40:02;;;;;;;5.75;3.42;;;;;;;;;;4365702;32;20097;-61
2021/10/23 14:42:29;;;;;;;6.30;3.45;;;;;;;;;;4366144;32;20133;-63
2021/10/23 14:44:56;;;;;;;4.50;2.90;;;;;;;;;;4365458;32;20530;-63
2021/10/23 14:47:22;;;;;;;5.55;3.00;;;;;;;;;;4390920;32;20089;-62
2021/10/23 14:49:49;;;;;;;5.22;3.05;;;;;;;;;;4378224;32;20178;-62
2021/10/23 14:52:16;;;;;;;5.57;3.40;;;;;;;;;;4366281;32;20069;-63
2021/10/23 14:54:45;;;;;;;4.97;3.58;;;;;;;;;;4378707;32;20165;-63
2021/10/23 14:57:12;;;;;;;4.75;3.10;;;;;;;;;;4378739;32;20073;-63
2021/10/23 14:59:38;;;;;;;9.98;3.08;;;;;;;;;;4378494;32;20088;-63